createdAt,value
2019-04-01T00:01:10.118Z,2.80
2019-04-01T00:03:37.879Z,2.80
2019-04-01T00:06:05.856Z,2.80
2019-04-01T00:08:33.725Z,2.80
2019-04-01T00:11:01.594Z,2.80
2019-04-01T00:13:29.483Z,2.80
2019-04-01T00:15:57.330Z,2.80
2019-04-01T00:18:25.220Z,2.80
2019-04-01T00:20:53.070Z,2.80
2019-04-01T00:23:21.342Z,2.70
2019-04-01T00:25:49.205Z,2.80
2019-04-01T00:28:17.097Z,2.70
2019-04-01T00:30:44.946Z,2.70
2019-04-01T00:33:12.831Z,2.70
2019-04-01T00:35:40.678Z,2.70
2019-04-01T00:38:08.570Z,2.70
2019-04-01T00:40:36.369Z,2.70
2019-04-01T00:43:29.526Z,2.70
2019-04-01T00:45:57.814Z,2.70
2019-04-01T00:48:25.642Z,2.60
2019-04-01T00:50:53.478Z,2.60
2019-04-01T00:53:21.362Z,2.50
2019-04-01T00:55:49.209Z,2.50
2019-04-01T00:58:17.108Z,2.60
2019-04-01T01:00:45.026Z,2.60
2019-04-01T01:03:12.810Z,2.50
2019-04-01T01:05:40.681Z,2.60
2019-04-01T01:08:08.569Z,2.60
2019-04-01T01:10:36.418Z,2.60
2019-04-01T01:13:04.317Z,2.50
2019-04-01T01:15:32.445Z,2.40
2019-04-01T01:18:01.277Z,2.40
2019-04-01T01:20:29.120Z,2.40
2019-04-01T01:22:57.001Z,2.40
2019-04-01T01:25:24.849Z,2.40
2019-04-01T01:27:52.738Z,2.40
2019-04-01T01:30:20.591Z,2.40
2019-04-01T01:32:48.479Z,2.40
2019-04-01T01:35:16.407Z,2.40
2019-04-01T01:37:44.330Z,2.40
2019-04-01T01:40:12.357Z,2.40
2019-04-01T01:42:40.270Z,2.30
2019-04-01T01:45:08.097Z,2.30
2019-04-01T01:47:35.964Z,2.20
2019-04-01T01:50:04.218Z,2.20
2019-04-01T01:52:31.983Z,2.20
2019-04-01T01:54:59.806Z,2.20
2019-04-01T01:57:27.647Z,2.20
2019-04-01T01:59:55.723Z,2.20
2019-04-01T02:02:23.583Z,2.10
2019-04-01T02:04:51.361Z,2.10
2019-04-01T02:07:19.299Z,2.10
2019-04-01T02:09:47.102Z,2.00
2019-04-01T02:12:14.946Z,1.90
2019-04-01T02:14:42.838Z,1.90
2019-04-01T02:17:10.762Z,1.80
2019-04-01T02:19:38.570Z,1.80
2019-04-01T02:22:06.414Z,1.80
2019-04-01T02:24:34.315Z,1.90
2019-04-01T02:27:02.156Z,1.90
2019-04-01T02:29:30.030Z,1.80
2019-04-01T02:31:57.899Z,1.80
2019-04-01T02:34:25.774Z,1.80
2019-04-01T02:36:53.620Z,1.90
2019-04-01T02:39:21.508Z,1.80
2019-04-01T02:41:49.373Z,1.80
2019-04-01T02:44:17.243Z,1.80
2019-04-01T02:46:45.088Z,1.90
2019-04-01T02:49:12.971Z,1.90
2019-04-01T02:51:40.824Z,1.90
2019-04-01T02:54:08.722Z,1.90
2019-04-01T02:56:36.640Z,1.90
2019-04-01T02:59:04.454Z,1.80
2019-04-01T03:01:32.587Z,1.70
2019-04-01T03:04:00.408Z,1.70
2019-04-01T03:06:28.229Z,1.70
2019-04-01T03:08:56.115Z,1.60
2019-04-01T03:11:23.966Z,1.60
2019-04-01T03:13:51.832Z,1.60
2019-04-01T03:16:19.604Z,1.60
2019-04-01T03:18:47.487Z,1.70
2019-04-01T03:21:15.338Z,1.70
2019-04-01T03:23:43.203Z,1.70
2019-04-01T03:26:10.983Z,1.60
2019-04-01T03:28:38.839Z,1.60
2019-04-01T03:31:06.626Z,1.50
2019-04-01T03:33:34.494Z,1.60
2019-04-01T03:36:02.455Z,1.60
2019-04-01T03:38:30.308Z,1.60
2019-04-01T03:40:58.195Z,1.70
2019-04-01T03:43:26.038Z,1.60
2019-04-01T03:45:53.927Z,1.60
2019-04-01T03:48:21.865Z,1.60
2019-04-01T03:50:49.665Z,1.60
2019-04-01T03:53:17.451Z,1.50
2019-04-01T03:55:45.362Z,1.50
2019-04-01T03:58:13.147Z,1.50
2019-04-01T04:00:41.028Z,1.50
2019-04-01T04:03:08.898Z,1.50
2019-04-01T04:05:36.770Z,1.60
2019-04-01T04:08:04.615Z,1.50
2019-04-01T04:10:32.389Z,1.50
2019-04-01T04:13:00.259Z,1.50
2019-04-01T04:15:28.132Z,1.50
2019-04-01T04:17:55.974Z,1.50
2019-04-01T04:20:23.871Z,1.40
2019-04-01T04:22:51.705Z,1.40
2019-04-01T04:25:19.678Z,1.40
2019-04-01T04:27:47.942Z,1.50
2019-04-01T04:30:18.518Z,1.50
2019-04-01T04:32:46.439Z,1.50
2019-04-01T04:35:14.237Z,1.50
2019-04-01T04:37:42.176Z,1.50
2019-04-01T04:40:09.974Z,1.50
2019-04-01T04:42:37.830Z,1.50
2019-04-01T04:45:05.778Z,1.50
2019-04-01T04:47:33.568Z,1.50
2019-04-01T04:50:01.455Z,1.50
2019-04-01T04:52:29.379Z,1.50
2019-04-01T04:54:57.239Z,1.50
2019-04-01T04:57:25.071Z,1.50
2019-04-01T04:59:52.894Z,1.50
2019-04-01T05:02:24.336Z,1.60
2019-04-01T05:04:50.370Z,1.60
2019-04-01T05:07:18.325Z,1.60
2019-04-01T05:09:46.110Z,1.50
2019-04-01T05:12:14.009Z,1.60
2019-04-01T05:14:41.839Z,1.60
2019-04-01T05:17:09.730Z,1.70
2019-04-01T05:19:37.576Z,1.70
2019-04-01T05:22:05.466Z,1.70
2019-04-01T05:24:33.482Z,1.80
2019-04-01T05:27:01.471Z,1.80
2019-04-01T05:29:30.253Z,1.80
2019-04-01T05:31:59.034Z,1.80
2019-04-01T05:34:28.665Z,1.90
2019-04-01T05:36:56.651Z,2.00
2019-04-01T05:39:24.511Z,2.10
2019-04-01T05:41:52.514Z,2.20
2019-04-01T05:44:20.421Z,2.30
2019-04-01T05:46:48.417Z,2.40
2019-04-01T05:49:16.363Z,2.50
2019-04-01T05:51:44.243Z,2.60
2019-04-01T05:54:12.129Z,2.70
2019-04-01T05:56:40.012Z,2.70
2019-04-01T05:59:07.926Z,2.80
2019-04-01T06:01:38.946Z,2.90
2019-04-01T06:04:06.833Z,3.00
2019-04-01T06:06:34.729Z,3.10
2019-04-01T06:09:03.508Z,3.20
2019-04-01T06:11:31.598Z,3.30
2019-04-01T06:13:59.537Z,3.40
2019-04-01T06:16:27.522Z,3.50
2019-04-01T06:18:55.297Z,3.70
2019-04-01T06:21:23.189Z,3.70
2019-04-01T06:23:51.130Z,3.90
2019-04-01T06:26:18.998Z,3.90
2019-04-01T06:28:46.942Z,4.00
2019-04-01T06:31:14.823Z,4.20
2019-04-01T06:33:42.807Z,4.30
2019-04-01T06:36:10.846Z,4.40
2019-04-01T06:38:38.661Z,4.50
2019-04-01T06:41:06.842Z,4.60
2019-04-01T06:43:34.710Z,4.70
2019-04-01T06:46:02.647Z,4.80
2019-04-01T06:48:30.437Z,4.80
2019-04-01T06:50:58.382Z,4.90
2019-04-01T06:53:26.265Z,4.90
2019-04-01T06:55:54.125Z,5.00
2019-04-01T06:58:22.090Z,5.10
2019-04-01T07:00:50.038Z,5.20
2019-04-01T07:03:18.814Z,5.20
2019-04-01T07:05:46.877Z,5.10
2019-04-01T07:08:14.839Z,5.20
2019-04-01T07:10:42.607Z,5.20
2019-04-01T07:13:10.426Z,5.30
2019-04-01T07:15:38.194Z,5.40
2019-04-01T07:18:05.979Z,5.50
2019-04-01T07:20:33.813Z,5.70
2019-04-01T07:23:01.615Z,5.80
2019-04-01T07:25:29.384Z,6.00
2019-04-01T07:27:57.171Z,6.10
2019-04-01T07:30:25.005Z,6.20
2019-04-01T07:32:52.866Z,6.30
2019-04-01T07:35:20.627Z,6.50
2019-04-01T07:37:48.432Z,6.60
2019-04-01T07:40:16.194Z,6.70
2019-04-01T07:42:44.070Z,6.90
2019-04-01T07:45:11.909Z,6.90
2019-04-01T07:47:39.695Z,6.90
2019-04-01T07:50:07.596Z,6.90
2019-04-01T07:52:35.370Z,6.80
2019-04-01T07:55:03.270Z,6.90
2019-04-01T07:57:32.769Z,6.80
2019-04-01T08:00:00.796Z,6.80
2019-04-01T08:02:28.564Z,6.80
2019-04-01T08:04:56.354Z,6.80
2019-04-01T08:07:24.295Z,6.90
2019-04-01T08:09:52.451Z,7.00
2019-04-01T08:12:20.285Z,7.10
2019-04-01T08:14:48.339Z,7.20
2019-04-01T08:17:16.107Z,7.30
2019-04-01T08:19:43.898Z,7.50
2019-04-01T08:22:11.675Z,7.50
2019-04-01T08:24:39.453Z,7.50
2019-04-01T08:27:07.502Z,7.50
2019-04-01T08:29:35.387Z,7.50
2019-04-01T08:32:03.548Z,7.30
2019-04-01T08:34:31.424Z,7.40
2019-04-01T08:36:59.202Z,7.50
2019-04-01T08:39:26.996Z,7.50
2019-04-01T08:41:54.958Z,7.60
2019-04-01T08:44:22.767Z,7.70
2019-04-01T08:46:50.530Z,7.70
2019-04-01T08:49:18.325Z,7.80
2019-04-01T08:51:46.135Z,7.90
2019-04-01T08:54:13.947Z,8.00
2019-04-01T08:56:42.152Z,8.00
2019-04-01T08:59:09.943Z,8.00
2019-04-01T09:01:37.795Z,8.00
2019-04-01T09:04:05.577Z,8.10
2019-04-01T09:06:33.362Z,8.10
2019-04-01T09:09:01.422Z,8.20
2019-04-01T09:11:29.214Z,8.20
2019-04-01T09:13:57.779Z,8.30
2019-04-01T09:16:25.906Z,8.40
2019-04-01T09:18:53.695Z,8.40
2019-04-01T09:21:21.499Z,8.50
2019-04-01T09:23:51.991Z,8.60
2019-04-01T09:26:18.765Z,8.70
2019-04-01T09:28:46.534Z,8.70
2019-04-01T09:31:14.374Z,8.80
2019-04-01T09:33:42.248Z,8.70
2019-04-01T09:36:10.112Z,8.70
2019-04-01T09:38:37.882Z,8.80
2019-04-01T09:41:05.670Z,8.80
2019-04-01T09:43:33.457Z,8.80
2019-04-01T09:46:01.250Z,8.80
2019-04-01T09:48:29.019Z,8.70
2019-04-01T09:50:56.811Z,8.70
2019-04-01T09:53:24.578Z,8.70
2019-04-01T09:55:52.370Z,8.60
2019-04-01T09:58:20.139Z,8.50
2019-04-01T10:00:52.966Z,8.70
2019-04-01T10:03:19.562Z,8.80
2019-04-01T10:05:47.351Z,8.80
2019-04-01T10:08:15.123Z,8.80
2019-04-01T10:10:42.941Z,8.80
2019-04-01T10:13:10.710Z,8.80
2019-04-01T10:15:38.498Z,8.90
2019-04-01T10:18:06.258Z,8.90
2019-04-01T10:20:34.049Z,9.00
2019-04-01T10:23:01.916Z,9.10
2019-04-01T10:25:29.705Z,9.10
2019-04-01T10:27:57.558Z,9.30
2019-04-01T10:30:25.526Z,9.30
2019-04-01T10:32:53.614Z,9.40
2019-04-01T10:35:21.486Z,9.40
2019-04-01T10:37:49.270Z,9.30
2019-04-01T10:40:17.161Z,9.30
2019-04-01T10:42:45.008Z,9.30
2019-04-01T10:45:13.168Z,9.30
2019-04-01T10:47:40.983Z,9.20
2019-04-01T10:50:09.124Z,9.30
2019-04-01T10:52:36.964Z,9.30
2019-04-01T10:55:05.203Z,9.30
2019-04-01T10:57:33.288Z,9.30
2019-04-01T11:00:01.400Z,9.30
2019-04-01T11:02:29.271Z,9.30
2019-04-01T11:04:57.104Z,9.30
2019-04-01T11:07:24.993Z,9.30
2019-04-01T11:09:52.790Z,9.40
2019-04-01T11:12:20.645Z,9.40
2019-04-01T11:14:48.424Z,9.50
2019-04-01T11:17:16.211Z,9.50
2019-04-01T11:19:44.026Z,9.50
2019-04-01T11:22:11.830Z,9.50
2019-04-01T11:24:39.607Z,9.60
2019-04-01T11:27:07.391Z,9.70
2019-04-01T11:29:35.150Z,9.80
2019-04-01T11:32:02.989Z,9.80
2019-04-01T11:34:30.841Z,9.80
2019-04-01T11:36:58.620Z,9.70
2019-04-01T11:39:26.385Z,9.80
2019-04-01T11:41:54.352Z,9.90
2019-04-01T11:44:22.419Z,10.00
2019-04-01T11:46:50.907Z,10.00
2019-04-01T11:49:19.812Z,10.10
2019-04-01T11:51:47.841Z,9.90
2019-04-01T11:54:15.646Z,9.90
2019-04-01T11:56:43.433Z,10.00
2019-04-01T11:59:11.236Z,10.10
2019-04-01T12:01:39.022Z,10.20
2019-04-01T12:04:06.785Z,10.30
2019-04-01T12:06:34.574Z,10.30
2019-04-01T12:09:02.363Z,10.30
2019-04-01T12:11:30.150Z,10.30
2019-04-01T12:13:57.922Z,10.40
2019-04-01T12:16:25.710Z,10.50
2019-04-01T12:18:53.486Z,10.50
2019-04-01T12:21:21.270Z,10.50
2019-04-01T12:23:49.367Z,10.40
2019-04-01T12:26:17.691Z,10.40
2019-04-01T12:28:45.813Z,10.40
2019-04-01T12:31:13.609Z,10.40
2019-04-01T12:33:41.374Z,10.40
2019-04-01T12:36:11.670Z,10.50
2019-04-01T12:38:38.816Z,10.60
2019-04-01T12:41:06.653Z,10.60
2019-04-01T12:43:34.458Z,10.60
2019-04-01T12:46:02.235Z,10.60
2019-04-01T12:48:30.101Z,10.60
2019-04-01T12:50:57.867Z,10.60
2019-04-01T12:53:25.660Z,10.50
2019-04-01T12:55:53.498Z,10.60
2019-04-01T12:58:24.935Z,10.60
2019-04-01T13:00:51.570Z,10.60
2019-04-01T13:03:19.890Z,10.70
2019-04-01T13:05:47.659Z,10.60
2019-04-01T13:08:15.460Z,10.70
2019-04-01T13:10:43.282Z,10.70
2019-04-01T13:13:12.943Z,10.80
2019-04-01T13:15:40.638Z,10.80
2019-04-01T13:18:08.430Z,10.90
2019-04-01T13:20:38.193Z,11.00
2019-04-01T13:23:05.710Z,11.00
2019-04-01T13:25:34.022Z,11.10
2019-04-01T13:28:02.054Z,11.20
2019-04-01T13:30:30.117Z,11.20
2019-04-01T13:32:57.910Z,11.20
2019-04-01T13:35:25.686Z,11.20
2019-04-01T13:37:53.477Z,11.30
2019-04-01T13:40:21.346Z,11.40
2019-04-01T13:42:49.150Z,11.40
2019-04-01T13:45:16.930Z,11.50
2019-04-01T13:47:44.728Z,11.60
2019-04-01T13:50:16.156Z,11.50
2019-04-01T13:52:42.982Z,11.40
2019-04-01T13:55:11.015Z,11.40
2019-04-01T13:57:38.807Z,11.40
2019-04-01T14:00:06.859Z,11.40
2019-04-01T14:02:34.657Z,11.40
2019-04-01T14:05:05.768Z,11.50
2019-04-01T14:07:31.950Z,11.50
2019-04-01T14:09:59.722Z,11.60
2019-04-01T14:12:27.494Z,11.60
2019-04-01T14:14:55.289Z,11.70
2019-04-01T14:17:23.058Z,11.80
2019-04-01T14:19:50.860Z,11.90
2019-04-01T14:22:20.114Z,11.90
2019-04-01T14:24:48.359Z,11.90
2019-04-01T14:27:16.131Z,11.90
2019-04-01T14:29:43.922Z,11.90
2019-04-01T14:32:11.771Z,11.90
2019-04-01T14:34:39.875Z,11.80
2019-04-01T14:37:09.832Z,11.80
2019-04-01T14:39:37.162Z,12.00
2019-04-01T14:42:04.938Z,12.00
2019-04-01T14:44:32.750Z,12.00
2019-04-01T14:47:00.518Z,12.00
2019-04-01T14:49:28.313Z,12.10
2019-04-01T14:51:56.082Z,12.10
2019-04-01T14:54:23.874Z,12.00
2019-04-01T14:56:51.646Z,12.10
2019-04-01T14:59:19.452Z,12.20
2019-04-01T15:01:47.238Z,12.30
2019-04-01T15:04:15.325Z,12.30
2019-04-01T15:06:43.097Z,12.40
2019-04-01T15:09:10.882Z,12.40
2019-04-01T15:11:38.694Z,12.50
2019-04-01T15:14:06.506Z,12.60
2019-04-01T15:16:34.279Z,12.70
2019-04-01T15:19:02.111Z,12.60
2019-04-01T15:21:29.886Z,12.70
2019-04-01T15:23:57.912Z,12.60
2019-04-01T15:26:26.035Z,12.60
2019-04-01T15:28:54.079Z,12.70
2019-04-01T15:31:21.850Z,12.80
2019-04-01T15:33:50.263Z,13.00
2019-04-01T15:36:18.385Z,13.10
2019-04-01T15:38:46.167Z,13.40
2019-04-01T15:41:14.077Z,13.60
2019-04-01T15:43:41.914Z,13.70
2019-04-01T15:46:09.702Z,14.00
2019-04-01T15:48:37.527Z,14.40
2019-04-01T15:51:05.318Z,14.80
2019-04-01T15:53:34.741Z,15.20
2019-04-01T15:56:03.006Z,15.60
2019-04-01T15:58:30.773Z,16.60
2019-04-01T16:00:58.562Z,17.60
2019-04-01T16:03:26.338Z,18.50
2019-04-01T16:05:54.137Z,19.10
2019-04-01T16:08:22.307Z,19.60
2019-04-01T16:10:50.665Z,19.90
2019-04-01T16:13:18.462Z,19.90
2019-04-01T16:15:46.254Z,20.40
2019-04-01T16:18:14.026Z,20.90
2019-04-01T16:20:41.814Z,21.10
2019-04-01T16:23:09.586Z,21.30
2019-04-01T16:25:37.802Z,21.30
2019-04-01T16:28:05.843Z,21.40
2019-04-01T16:30:33.667Z,21.40
2019-04-01T16:33:01.479Z,21.70
2019-04-01T16:35:29.311Z,21.90
2019-04-01T16:37:59.404Z,21.70
2019-04-01T16:40:26.690Z,21.40
2019-04-01T16:42:55.754Z,21.50
2019-04-01T16:45:23.841Z,21.70
2019-04-01T16:47:51.980Z,21.40
2019-04-01T16:50:19.862Z,21.40
2019-04-01T16:52:47.721Z,21.00
2019-04-01T16:55:18.253Z,20.60
2019-04-01T16:57:45.511Z,20.30
2019-04-01T17:00:15.098Z,19.70
2019-04-01T17:05:10.742Z,16.80
2019-04-01T17:07:38.658Z,15.80
2019-04-01T17:10:06.527Z,15.10
2019-04-01T17:12:34.384Z,15.30
2019-04-01T17:15:03.634Z,15.10
2019-04-01T17:17:31.638Z,14.50
2019-04-01T17:19:59.522Z,13.90
2019-04-01T17:22:27.385Z,13.20
2019-04-01T17:24:55.214Z,12.60
2019-04-01T17:27:23.083Z,12.00
2019-04-01T17:29:50.871Z,11.60
2019-04-01T17:32:18.658Z,11.30
2019-04-01T17:34:46.599Z,11.00
2019-04-01T17:37:14.486Z,10.70
2019-04-01T17:39:42.350Z,10.50
2019-04-01T17:42:10.138Z,10.30
2019-04-01T17:44:37.970Z,10.10
2019-04-01T17:47:06.308Z,9.90
2019-04-01T17:49:34.523Z,9.80
2019-04-01T17:52:04.358Z,9.70
2019-04-01T17:54:31.822Z,9.60
2019-04-01T17:56:59.682Z,9.50
2019-04-01T17:59:28.479Z,9.40
2019-04-01T18:01:57.161Z,9.30
2019-04-01T18:04:25.112Z,9.20
2019-04-01T18:06:53.259Z,9.10
2019-04-01T18:09:21.056Z,9.00
2019-04-01T18:11:48.838Z,9.00
2019-04-01T18:14:16.671Z,8.90
2019-04-01T18:16:44.562Z,8.80
2019-04-01T18:19:12.406Z,8.80
2019-04-01T18:21:40.355Z,8.70
2019-04-01T18:24:08.152Z,8.50
2019-04-01T18:26:36.026Z,8.50
2019-04-01T18:29:05.604Z,8.50
2019-04-01T18:31:33.702Z,8.50
2019-04-01T18:34:01.575Z,8.40
2019-04-01T18:36:29.457Z,8.30
2019-04-01T18:38:57.241Z,8.30
2019-04-01T18:41:25.038Z,8.20
2019-04-01T18:43:52.907Z,8.10
2019-04-01T18:46:21.174Z,8.10
2019-04-01T18:48:50.154Z,8.00
2019-04-01T18:51:20.335Z,8.00
2019-04-01T18:53:47.675Z,7.90
2019-04-01T18:56:15.727Z,7.90
2019-04-01T18:58:43.607Z,7.80
2019-04-01T19:01:11.479Z,7.80
2019-04-01T19:03:42.723Z,7.60
2019-04-01T19:06:08.983Z,7.60
2019-04-01T19:08:36.841Z,7.50
2019-04-01T19:11:05.103Z,7.50
2019-04-01T19:13:33.104Z,7.50
2019-04-01T19:16:02.611Z,7.40
2019-04-01T19:18:30.458Z,7.50
2019-04-01T19:21:04.379Z,7.50
2019-04-01T19:23:27.937Z,7.40
2019-04-01T19:25:55.782Z,7.40
2019-04-01T19:28:23.713Z,7.40
2019-04-01T19:30:51.853Z,7.40
2019-04-01T19:33:19.752Z,7.30
2019-04-01T19:35:47.558Z,7.30
2019-04-01T19:38:15.378Z,7.30
2019-04-01T19:40:43.199Z,7.20
2019-04-01T19:43:11.083Z,7.10
2019-04-01T19:45:40.010Z,7.10
2019-04-01T19:48:08.034Z,7.00
2019-04-01T19:50:36.155Z,7.00
2019-04-01T19:53:04.177Z,7.00
2019-04-01T19:55:32.035Z,7.00
2019-04-01T19:57:59.954Z,6.90
2019-04-01T20:00:29.585Z,6.90
2019-04-01T20:02:57.411Z,6.90
2019-04-01T20:05:25.246Z,6.90
2019-04-01T20:07:53.126Z,6.90
2019-04-01T20:10:21.076Z,6.90
2019-04-01T20:12:50.851Z,6.80
2019-04-01T20:15:18.644Z,6.80
2019-04-01T20:17:46.794Z,6.80
2019-04-01T20:20:14.989Z,6.80
2019-04-01T20:22:42.903Z,6.70
2019-04-01T20:25:11.032Z,6.70
2019-04-01T20:27:38.918Z,6.60
2019-04-01T20:30:07.186Z,6.60
2019-04-01T20:32:34.959Z,6.50
2019-04-01T20:35:02.853Z,6.50
2019-04-01T20:37:30.749Z,6.50
2019-04-01T20:40:00.401Z,6.50
2019-04-01T20:42:28.275Z,6.50
2019-04-01T20:44:56.339Z,6.40
2019-04-01T20:47:24.209Z,6.40
2019-04-01T20:49:52.105Z,6.30
2019-04-01T20:52:19.963Z,6.30
2019-04-01T20:54:47.857Z,6.30
2019-04-01T20:57:17.179Z,6.30
2019-04-01T20:59:45.234Z,6.30
2019-04-01T21:02:13.057Z,6.20
2019-04-01T21:04:40.985Z,6.20
2019-04-01T21:07:09.986Z,6.10
2019-04-01T21:09:38.014Z,6.00
2019-04-01T21:12:05.855Z,6.00
2019-04-01T21:14:34.147Z,6.00
2019-04-01T21:17:02.005Z,6.00
2019-04-01T21:19:29.794Z,6.00
2019-04-01T21:21:57.719Z,5.90
2019-04-01T21:24:25.527Z,5.90
2019-04-01T21:26:53.367Z,5.90
2019-04-01T21:29:22.834Z,5.80
2019-04-01T21:31:50.834Z,5.80
2019-04-01T21:34:18.737Z,5.80
2019-04-01T21:36:46.592Z,5.80
2019-04-01T21:39:14.745Z,5.70
2019-04-01T21:41:42.549Z,5.60
2019-04-01T21:49:05.335Z,5.50
2019-04-01T21:51:33.499Z,5.50
2019-04-01T21:54:01.370Z,5.50
2019-04-01T21:56:29.219Z,5.40
2019-04-01T21:58:57.106Z,5.40
2019-04-01T22:01:25.135Z,5.30
2019-04-01T22:03:55.333Z,5.30
2019-04-01T22:06:22.564Z,5.20
2019-04-01T22:08:50.683Z,5.20
2019-04-01T22:11:18.486Z,5.10
2019-04-01T22:13:46.254Z,5.10
2019-04-01T22:16:14.127Z,5.10
2019-04-01T22:18:42.852Z,5.10
2019-04-01T22:21:11.208Z,5.10
2019-04-01T22:23:39.332Z,5.10
2019-04-01T22:26:07.112Z,5.10
2019-04-01T22:28:35.059Z,5.00
2019-04-01T22:31:02.859Z,5.00
2019-04-01T22:33:30.708Z,5.00
2019-04-01T22:35:58.981Z,5.00
2019-04-01T22:38:26.873Z,5.00
2019-04-01T22:40:54.768Z,5.00
2019-04-01T22:43:22.666Z,4.90
2019-04-01T22:45:50.599Z,4.90
2019-04-01T22:48:18.426Z,4.90
2019-04-01T22:50:46.202Z,4.90
2019-04-01T22:53:14.046Z,4.90
2019-04-01T22:55:41.945Z,4.90
2019-04-01T22:58:09.786Z,4.90
2019-04-01T23:00:37.680Z,4.80
2019-04-01T23:03:05.527Z,4.70
2019-04-01T23:05:33.422Z,4.70
2019-04-01T23:08:02.194Z,4.70
2019-04-01T23:10:30.274Z,4.60
2019-04-01T23:12:58.122Z,4.60
2019-04-01T23:15:26.014Z,4.60
2019-04-01T23:17:54.022Z,4.60
2019-04-01T23:20:21.846Z,4.60
2019-04-01T23:22:49.691Z,4.60
2019-04-01T23:25:17.474Z,4.50
2019-04-01T23:27:45.335Z,4.50
2019-04-01T23:30:13.390Z,4.50
2019-04-01T23:32:41.953Z,4.50
2019-04-01T23:35:10.267Z,4.50
2019-04-01T23:37:39.274Z,4.50
2019-04-01T23:40:07.346Z,4.50
2019-04-01T23:42:37.707Z,4.50
2019-04-01T23:45:05.025Z,4.40
2019-04-01T23:47:32.898Z,4.50
2019-04-01T23:50:00.749Z,4.50
2019-04-01T23:52:28.539Z,4.40
2019-04-01T23:54:56.386Z,4.40
2019-04-01T23:57:25.118Z,4.30
2019-04-01T23:59:53.126Z,4.30
